createdAt,value
2016-10-23T00:00:34.624Z,0
2016-10-23T00:01:45.773Z,0
2016-10-23T00:02:56.902Z,0
2016-10-23T00:04:08.056Z,0
2016-10-23T00:05:19.191Z,0
2016-10-23T00:06:30.938Z,0
2016-10-23T00:07:42.706Z,0
2016-10-23T00:08:53.837Z,0
2016-10-23T00:10:05.033Z,0
2016-10-23T00:11:16.800Z,0
2016-10-23T00:12:27.955Z,0
2016-10-23T00:13:39.125Z,0
2016-10-23T00:14:50.278Z,0
2016-10-23T00:16:01.433Z,0
2016-10-23T00:17:12.604Z,0
2016-10-23T00:18:23.748Z,0
2016-10-23T00:19:34.916Z,0
2016-10-23T00:20:46.086Z,0
2016-10-23T00:21:57.254Z,0
2016-10-23T00:23:09.145Z,0
2016-10-23T00:24:20.292Z,0
2016-10-23T00:25:31.474Z,0
2016-10-23T00:26:42.636Z,0
2016-10-23T00:27:53.770Z,0
2016-10-23T00:29:04.940Z,0
2016-10-23T00:30:16.088Z,0
2016-10-23T00:31:27.234Z,0
2016-10-23T00:32:38.408Z,0
2016-10-23T00:33:49.570Z,0
2016-10-23T00:35:00.726Z,0
2016-10-23T00:36:11.922Z,0
2016-10-23T00:37:23.096Z,0
2016-10-23T00:38:34.279Z,0
2016-10-23T00:39:45.441Z,0
2016-10-23T00:40:56.613Z,0
2016-10-23T00:42:08.916Z,0
2016-10-23T00:43:20.883Z,0
2016-10-23T00:44:32.827Z,0
2016-10-23T00:45:43.991Z,0
2016-10-23T00:46:55.170Z,0
2016-10-23T00:48:06.330Z,0
2016-10-23T00:49:17.509Z,0
2016-10-23T00:50:28.663Z,0
2016-10-23T00:51:39.831Z,0
2016-10-23T00:52:51.018Z,0
2016-10-23T00:54:02.165Z,0
2016-10-23T00:55:13.325Z,0
2016-10-23T00:56:24.510Z,0
2016-10-23T00:57:35.709Z,0
2016-10-23T00:58:46.887Z,0
2016-10-23T00:59:58.045Z,0
2016-10-23T01:01:09.216Z,0
2016-10-23T01:02:20.363Z,0
2016-10-23T01:03:31.560Z,0
2016-10-23T01:04:42.735Z,0
2016-10-23T01:05:53.927Z,0
2016-10-23T01:07:05.099Z,0
2016-10-23T01:08:16.275Z,0
2016-10-23T01:09:27.456Z,0
2016-10-23T01:10:38.622Z,0
2016-10-23T01:11:49.794Z,0
2016-10-23T01:13:00.937Z,0
2016-10-23T01:14:12.080Z,0
2016-10-23T01:15:23.239Z,0
2016-10-23T01:16:34.413Z,0
2016-10-23T01:17:45.554Z,0
2016-10-23T01:18:56.742Z,0
2016-10-23T01:20:07.910Z,0
2016-10-23T01:21:19.045Z,0
2016-10-23T01:22:30.193Z,0
2016-10-23T01:23:41.353Z,0
2016-10-23T01:24:52.496Z,0
2016-10-23T01:26:03.685Z,0
2016-10-23T01:27:14.836Z,0
2016-10-23T01:28:26.017Z,0
2016-10-23T01:29:37.179Z,0
2016-10-23T01:30:48.310Z,0
2016-10-23T01:31:59.520Z,0
2016-10-23T01:33:10.760Z,0
2016-10-23T01:34:21.914Z,0
2016-10-23T01:35:33.095Z,0
2016-10-23T01:36:44.267Z,0
2016-10-23T01:37:55.445Z,0
2016-10-23T01:39:06.614Z,0
2016-10-23T01:40:17.763Z,0
2016-10-23T01:41:28.896Z,0
2016-10-23T01:42:40.066Z,0
2016-10-23T01:43:51.207Z,0
2016-10-23T01:45:02.392Z,0
2016-10-23T01:46:13.543Z,0
2016-10-23T01:47:24.731Z,0
2016-10-23T01:48:35.885Z,0
2016-10-23T01:49:47.050Z,0
2016-10-23T01:50:58.185Z,0
2016-10-23T01:52:09.355Z,0
2016-10-23T01:53:20.499Z,0
2016-10-23T01:54:31.704Z,0
2016-10-23T01:55:42.853Z,0
2016-10-23T01:56:54.015Z,0
2016-10-23T01:58:05.161Z,0
2016-10-23T01:59:16.344Z,0
2016-10-23T02:00:27.517Z,0
2016-10-23T02:01:38.650Z,0
2016-10-23T02:02:49.832Z,0
2016-10-23T02:04:01.013Z,0
2016-10-23T02:05:12.371Z,0
2016-10-23T02:06:24.084Z,0
2016-10-23T02:07:35.218Z,0
2016-10-23T02:08:46.369Z,0
2016-10-23T02:09:57.529Z,0
2016-10-23T02:11:08.693Z,0
2016-10-23T02:12:19.889Z,0
2016-10-23T02:13:31.040Z,0
2016-10-23T02:14:42.189Z,0
2016-10-23T02:15:53.398Z,0
2016-10-23T02:17:04.528Z,0
2016-10-23T02:18:15.715Z,0
2016-10-23T02:19:26.838Z,0
2016-10-23T02:20:38.016Z,0
2016-10-23T02:21:49.160Z,0
2016-10-23T02:23:00.299Z,0
2016-10-23T02:24:11.479Z,0
2016-10-23T02:25:22.672Z,0
2016-10-23T02:26:33.849Z,0
2016-10-23T02:27:45.014Z,0
2016-10-23T02:28:56.162Z,0
2016-10-23T02:30:07.928Z,0
2016-10-23T02:31:19.103Z,0
2016-10-23T02:32:30.275Z,0
2016-10-23T02:33:42.231Z,0
2016-10-23T02:34:53.388Z,0
2016-10-23T02:36:04.562Z,0
2016-10-23T02:37:15.727Z,0
2016-10-23T02:38:26.923Z,0
2016-10-23T02:39:38.075Z,0
2016-10-23T02:40:49.242Z,0
2016-10-23T02:42:00.411Z,0
2016-10-23T02:43:11.590Z,0
2016-10-23T02:44:22.764Z,0
2016-10-23T02:45:33.923Z,0
2016-10-23T02:46:45.058Z,0
2016-10-23T02:47:56.205Z,0
2016-10-23T02:49:07.380Z,0
2016-10-23T02:50:18.549Z,0
2016-10-23T02:51:29.691Z,0
2016-10-23T02:52:40.848Z,0
2016-10-23T02:53:52.008Z,0
2016-10-23T02:55:03.174Z,0
2016-10-23T02:56:14.339Z,0
2016-10-23T02:57:25.486Z,0
2016-10-23T02:58:36.695Z,0
2016-10-23T02:59:47.831Z,0
2016-10-23T03:00:59.008Z,0
2016-10-23T03:02:10.147Z,0
2016-10-23T03:03:21.331Z,0
2016-10-23T03:04:32.486Z,0
2016-10-23T03:05:43.651Z,0
2016-10-23T03:06:54.814Z,0
2016-10-23T03:08:05.973Z,0
2016-10-23T03:09:17.175Z,0
2016-10-23T03:10:28.320Z,0
2016-10-23T03:11:39.519Z,0
2016-10-23T03:12:50.681Z,0
2016-10-23T03:14:01.823Z,0
2016-10-23T03:15:13.012Z,0
2016-10-23T03:16:24.169Z,0
2016-10-23T03:17:35.331Z,0
2016-10-23T03:18:47.065Z,0
2016-10-23T03:19:58.237Z,0
2016-10-23T03:21:09.415Z,0
2016-10-23T03:22:20.579Z,0
2016-10-23T03:23:31.775Z,0
2016-10-23T03:24:42.946Z,0
2016-10-23T03:25:54.090Z,0
2016-10-23T03:27:05.255Z,0
2016-10-23T03:28:16.386Z,0
2016-10-23T03:29:27.523Z,0
2016-10-23T03:30:38.690Z,0
2016-10-23T03:31:49.846Z,0
2016-10-23T03:33:01.024Z,0
2016-10-23T03:34:12.268Z,0
2016-10-23T03:35:25.123Z,0
2016-10-23T03:36:36.273Z,0
2016-10-23T03:37:47.998Z,0
2016-10-23T03:38:59.175Z,0
2016-10-23T03:40:10.362Z,0
2016-10-23T03:41:22.077Z,0
2016-10-23T03:42:33.810Z,0
2016-10-23T03:43:46.057Z,0
2016-10-23T03:44:57.771Z,0
2016-10-23T03:46:09.494Z,0
2016-10-23T03:47:20.669Z,0
2016-10-23T03:48:31.819Z,0
2016-10-23T03:49:42.988Z,0
2016-10-23T03:50:54.742Z,0
2016-10-23T03:52:05.888Z,0
2016-10-23T03:53:17.055Z,0
2016-10-23T03:54:28.265Z,0
2016-10-23T03:55:39.425Z,0
2016-10-23T03:56:51.169Z,0
2016-10-23T03:58:02.352Z,0
2016-10-23T03:59:13.509Z,0
2016-10-23T04:00:25.217Z,0
2016-10-23T04:01:36.947Z,0
2016-10-23T04:02:48.653Z,0
2016-10-23T04:04:00.384Z,0
2016-10-23T04:05:11.577Z,0
2016-10-23T04:06:22.744Z,0
2016-10-23T04:07:33.908Z,0
2016-10-23T04:08:45.091Z,0
2016-10-23T04:10:17.538Z,0
2016-10-23T04:11:28.692Z,0
2016-10-23T04:12:39.880Z,0
2016-10-23T04:14:18.618Z,0
2016-10-23T04:15:31.532Z,0
2016-10-23T04:16:42.700Z,0
2016-10-23T04:17:53.852Z,0
2016-10-23T04:19:05.035Z,0
2016-10-23T04:20:16.204Z,0
2016-10-23T04:21:27.374Z,0
2016-10-23T04:22:39.103Z,0
2016-10-23T04:23:50.256Z,0
2016-10-23T04:25:01.413Z,0
2016-10-23T04:26:12.590Z,0
2016-10-23T04:27:24.363Z,0
2016-10-23T04:28:35.549Z,0
2016-10-23T04:29:46.712Z,0
2016-10-23T04:30:58.411Z,0
2016-10-23T04:32:09.558Z,0
2016-10-23T04:33:20.728Z,0
2016-10-23T04:34:32.455Z,0
2016-10-23T04:35:43.602Z,0
2016-10-23T04:36:54.773Z,0
2016-10-23T04:38:05.952Z,0
2016-10-23T04:39:17.671Z,0
2016-10-23T04:40:28.852Z,0
2016-10-23T04:41:39.996Z,0
2016-10-23T04:42:51.781Z,0
2016-10-23T04:44:02.942Z,0
2016-10-23T04:45:14.657Z,0
2016-10-23T04:46:26.964Z,0
2016-10-23T04:47:38.679Z,0
2016-10-23T04:48:49.844Z,0
2016-10-23T04:50:01.013Z,0
2016-10-23T04:51:12.190Z,0
2016-10-23T04:52:23.362Z,0
2016-10-23T04:53:34.481Z,0
2016-10-23T04:54:45.705Z,0
2016-10-23T04:55:56.899Z,0
2016-10-23T04:57:08.075Z,0
2016-10-23T04:58:19.768Z,0
2016-10-23T04:59:30.938Z,0
2016-10-23T05:00:42.659Z,0
2016-10-23T05:01:54.373Z,0
2016-10-23T05:03:06.076Z,0
2016-10-23T05:04:17.226Z,0
2016-10-23T05:05:28.437Z,0
2016-10-23T05:06:40.161Z,0
2016-10-23T05:07:51.870Z,0
2016-10-23T05:09:03.043Z,0
2016-10-23T05:10:14.183Z,0
2016-10-23T05:11:25.385Z,0
2016-10-23T05:12:36.575Z,0
2016-10-23T05:13:48.314Z,0
2016-10-23T05:14:59.463Z,0
2016-10-23T05:16:11.170Z,0
2016-10-23T05:17:22.343Z,0
2016-10-23T05:18:33.503Z,0
2016-10-23T05:19:44.693Z,0
2016-10-23T05:20:55.906Z,0
2016-10-23T05:22:07.071Z,0
2016-10-23T05:23:18.226Z,0
2016-10-23T05:24:29.428Z,0
2016-10-23T05:25:40.574Z,0
2016-10-23T05:26:51.748Z,0
2016-10-23T05:28:02.901Z,0
2016-10-23T05:29:14.078Z,0
2016-10-23T05:30:25.249Z,0
2016-10-23T05:31:36.406Z,0
2016-10-23T05:32:47.628Z,0
2016-10-23T05:33:58.774Z,0
2016-10-23T05:35:09.945Z,0
2016-10-23T05:36:21.096Z,0
2016-10-23T05:37:32.254Z,0
2016-10-23T05:38:43.412Z,0
2016-10-23T05:39:54.598Z,0
2016-10-23T05:41:05.803Z,0
2016-10-23T05:42:16.941Z,0
2016-10-23T05:43:28.074Z,0
2016-10-23T05:44:39.255Z,0
2016-10-23T05:45:50.400Z,0
2016-10-23T05:47:01.557Z,0
2016-10-23T05:48:13.292Z,0
2016-10-23T05:49:24.490Z,0
2016-10-23T05:50:35.647Z,0
2016-10-23T05:51:46.799Z,0
2016-10-23T05:52:57.951Z,0
2016-10-23T05:54:09.184Z,0
2016-10-23T05:55:20.343Z,0
2016-10-23T05:56:31.487Z,0
2016-10-23T05:57:43.523Z,0
2016-10-23T05:58:54.661Z,0
2016-10-23T06:00:05.852Z,0
2016-10-23T06:01:17.030Z,0
2016-10-23T06:02:28.181Z,0
2016-10-23T06:03:39.340Z,0
2016-10-23T06:04:50.511Z,0
2016-10-23T06:06:01.684Z,0
2016-10-23T06:07:12.835Z,0
2016-10-23T06:08:24.573Z,0
2016-10-23T06:09:35.715Z,0
2016-10-23T06:10:46.903Z,0
2016-10-23T06:11:58.104Z,0
2016-10-23T06:13:09.289Z,0
2016-10-23T06:14:20.466Z,0
2016-10-23T06:15:31.638Z,0
2016-10-23T06:16:42.810Z,0
2016-10-23T06:17:53.983Z,0
2016-10-23T06:19:05.207Z,0
2016-10-23T06:20:16.353Z,0
2016-10-23T06:21:27.516Z,0
2016-10-23T06:22:38.661Z,0
2016-10-23T06:23:49.813Z,0
2016-10-23T06:25:00.969Z,0
2016-10-23T06:26:12.122Z,0
2016-10-23T06:27:23.295Z,0
2016-10-23T06:28:34.469Z,0
2016-10-23T06:29:45.637Z,0
2016-10-23T06:30:56.809Z,0
2016-10-23T06:32:07.959Z,0
2016-10-23T06:33:19.127Z,0
2016-10-23T06:34:30.281Z,0
2016-10-23T06:35:41.458Z,0
2016-10-23T06:36:52.609Z,0
2016-10-23T06:38:03.783Z,0
2016-10-23T06:39:14.929Z,0
2016-10-23T06:40:26.089Z,0
2016-10-23T06:41:37.292Z,0
2016-10-23T06:42:49.027Z,0
2016-10-23T06:44:00.153Z,0
2016-10-23T06:45:11.365Z,0
2016-10-23T06:46:22.530Z,0
2016-10-23T06:47:33.677Z,0
2016-10-23T06:48:44.850Z,0
2016-10-23T06:49:56.064Z,0
2016-10-23T06:51:07.238Z,0
2016-10-23T06:52:18.408Z,0
2016-10-23T06:53:29.546Z,0
2016-10-23T06:54:40.718Z,0
2016-10-23T06:55:51.861Z,0
2016-10-23T06:57:03.034Z,0
2016-10-23T06:58:14.220Z,0
2016-10-23T06:59:25.385Z,0
2016-10-23T07:00:36.552Z,0
2016-10-23T07:01:47.846Z,0
2016-10-23T07:02:59.005Z,0
2016-10-23T07:04:10.194Z,0
2016-10-23T07:05:21.379Z,0
2016-10-23T07:06:32.560Z,0
2016-10-23T07:07:43.725Z,0
2016-10-23T07:08:54.872Z,0
2016-10-23T07:10:06.029Z,0
2016-10-23T07:11:17.199Z,0
2016-10-23T07:12:28.388Z,0
2016-10-23T07:13:39.597Z,0
2016-10-23T07:14:50.743Z,0
2016-10-23T07:16:01.886Z,0
2016-10-23T07:17:13.079Z,0
2016-10-23T07:18:24.238Z,0
2016-10-23T07:19:35.404Z,0
2016-10-23T07:20:46.570Z,0
2016-10-23T07:21:57.739Z,0
2016-10-23T07:23:08.910Z,0
2016-10-23T07:24:20.061Z,0
2016-10-23T07:25:31.246Z,0
2016-10-23T07:26:42.458Z,0
2016-10-23T07:27:53.583Z,0
2016-10-23T07:29:04.730Z,0
2016-10-23T07:30:15.905Z,0
2016-10-23T07:31:27.107Z,0
2016-10-23T07:32:38.309Z,0
2016-10-23T07:33:49.480Z,0
2016-10-23T07:35:00.647Z,0
2016-10-23T07:36:11.808Z,0
2016-10-23T07:37:22.955Z,0
2016-10-23T07:38:34.125Z,0
2016-10-23T07:39:45.268Z,0
2016-10-23T07:40:56.462Z,0
2016-10-23T07:42:07.650Z,0
2016-10-23T07:43:18.831Z,0
2016-10-23T07:44:30.008Z,0
2016-10-23T07:45:41.213Z,0
2016-10-23T07:46:52.362Z,0
2016-10-23T07:48:03.512Z,0
2016-10-23T07:49:14.692Z,0
2016-10-23T07:50:25.822Z,0
2016-10-23T07:51:36.969Z,0
2016-10-23T07:52:48.133Z,0
2016-10-23T07:53:59.263Z,0
2016-10-23T07:55:10.441Z,0
2016-10-23T07:56:21.617Z,0
2016-10-23T07:57:32.819Z,0
2016-10-23T07:58:43.960Z,0
2016-10-23T07:59:55.118Z,0
2016-10-23T08:01:06.287Z,0
2016-10-23T08:02:18.044Z,0
2016-10-23T08:03:29.207Z,0
2016-10-23T08:04:40.355Z,0
2016-10-23T08:05:51.519Z,0
2016-10-23T08:07:02.715Z,0
2016-10-23T08:08:13.857Z,0
2016-10-23T08:09:25.032Z,0
2016-10-23T08:10:36.222Z,0
2016-10-23T08:11:47.385Z,0
2016-10-23T08:12:58.570Z,0
2016-10-23T08:14:09.767Z,0
2016-10-23T08:15:20.950Z,0
2016-10-23T08:16:32.091Z,0
2016-10-23T08:17:43.258Z,0
2016-10-23T08:18:54.568Z,5
2016-10-23T08:20:05.747Z,5
2016-10-23T08:21:16.913Z,5
2016-10-23T08:22:28.132Z,10
2016-10-23T08:23:39.336Z,10
2016-10-23T08:24:50.554Z,10
2016-10-23T08:26:01.742Z,15
2016-10-23T08:27:12.915Z,20
2016-10-23T08:28:24.098Z,20
2016-10-23T08:29:35.266Z,25
2016-10-23T08:30:46.414Z,30
2016-10-23T08:31:57.577Z,30
2016-10-23T08:33:08.754Z,35
2016-10-23T08:34:19.896Z,40
2016-10-23T08:35:31.024Z,50
2016-10-23T08:36:42.820Z,55
2016-10-23T08:37:53.998Z,60
2016-10-23T08:39:05.173Z,65
2016-10-23T08:40:16.347Z,65
2016-10-23T08:41:27.500Z,70
2016-10-23T08:42:38.669Z,75
2016-10-23T08:43:49.824Z,80
2016-10-23T08:45:00.969Z,85
2016-10-23T08:46:13.272Z,90
2016-10-23T08:47:24.515Z,95
2016-10-23T08:48:35.654Z,100
2016-10-23T08:49:46.844Z,105
2016-10-23T08:50:58.010Z,105
2016-10-23T08:52:09.150Z,120
2016-10-23T08:53:20.853Z,130
2016-10-23T08:54:32.003Z,130
2016-10-23T08:55:43.146Z,150
2016-10-23T08:56:54.301Z,155
2016-10-23T08:58:05.483Z,160
2016-10-23T08:59:16.686Z,180
2016-10-23T09:00:27.837Z,185
2016-10-23T09:01:38.984Z,190
2016-10-23T09:02:50.180Z,200
2016-10-23T09:04:01.328Z,215
2016-10-23T09:05:12.476Z,240
2016-10-23T09:06:23.687Z,250
2016-10-23T09:07:34.862Z,250
2016-10-23T09:08:46.057Z,245
2016-10-23T09:09:57.220Z,255
2016-10-23T09:11:08.373Z,260
2016-10-23T09:12:19.509Z,255
2016-10-23T09:13:30.679Z,260
2016-10-23T09:14:41.835Z,275
2016-10-23T09:15:53.041Z,265
2016-10-23T09:17:04.186Z,265
2016-10-23T09:18:15.386Z,270
2016-10-23T09:19:26.549Z,285
2016-10-23T09:20:37.716Z,305
2016-10-23T09:21:48.855Z,315
2016-10-23T09:23:00.609Z,310
2016-10-23T09:24:11.758Z,315
2016-10-23T09:25:22.890Z,310
2016-10-23T09:26:34.058Z,320
2016-10-23T09:27:45.195Z,320
2016-10-23T09:28:56.346Z,315
2016-10-23T09:30:07.531Z,330
2016-10-23T09:31:18.691Z,315
2016-10-23T09:32:29.881Z,295
2016-10-23T09:33:41.008Z,330
2016-10-23T09:34:52.168Z,330
2016-10-23T09:36:03.338Z,345
2016-10-23T09:37:15.076Z,355
2016-10-23T09:38:26.261Z,335
2016-10-23T09:39:37.403Z,355
2016-10-23T09:40:48.564Z,360
2016-10-23T09:41:59.715Z,360
2016-10-23T09:43:10.877Z,395
2016-10-23T09:44:22.068Z,410
2016-10-23T09:45:33.271Z,395
2016-10-23T09:46:44.448Z,375
2016-10-23T09:47:55.614Z,360
2016-10-23T09:49:06.779Z,395
2016-10-23T09:50:17.930Z,440
2016-10-23T09:51:29.100Z,455
2016-10-23T09:52:40.283Z,470
2016-10-23T09:53:51.462Z,455
2016-10-23T09:55:02.651Z,445
2016-10-23T09:56:13.856Z,450
2016-10-23T09:57:25.018Z,435
2016-10-23T09:58:36.203Z,440
2016-10-23T09:59:47.360Z,415
2016-10-23T10:00:58.578Z,380
2016-10-23T10:02:09.730Z,395
2016-10-23T10:03:20.901Z,400
2016-10-23T10:04:32.047Z,425
2016-10-23T10:05:43.184Z,395
2016-10-23T10:06:54.333Z,395
2016-10-23T10:08:05.485Z,310
2016-10-23T10:09:16.656Z,285
2016-10-23T10:10:27.822Z,350
2016-10-23T10:11:38.992Z,430
2016-10-23T10:12:50.150Z,400
2016-10-23T10:14:01.288Z,415
2016-10-23T10:15:12.485Z,445
2016-10-23T10:16:23.645Z,495
2016-10-23T10:17:34.824Z,575
2016-10-23T10:18:45.982Z,650
2016-10-23T10:19:57.735Z,665
2016-10-23T10:21:08.911Z,665
2016-10-23T10:22:20.128Z,740
2016-10-23T10:23:31.305Z,795
2016-10-23T10:24:43.017Z,785
2016-10-23T10:25:54.175Z,750
2016-10-23T10:27:05.406Z,740
2016-10-23T10:28:16.576Z,765
2016-10-23T10:29:27.764Z,705
2016-10-23T10:30:38.941Z,760
2016-10-23T10:31:50.131Z,695
2016-10-23T10:33:01.292Z,580
2016-10-23T10:34:12.541Z,540
2016-10-23T10:35:23.697Z,555
2016-10-23T10:36:34.858Z,570
2016-10-23T10:37:46.015Z,570
2016-10-23T10:38:57.201Z,590
2016-10-23T10:40:08.366Z,555
2016-10-23T10:41:19.505Z,500
2016-10-23T10:42:30.659Z,505
2016-10-23T10:43:41.829Z,540
2016-10-23T10:44:53.007Z,580
2016-10-23T10:46:04.757Z,590
2016-10-23T10:47:15.929Z,575
2016-10-23T10:48:27.086Z,535
2016-10-23T10:49:38.219Z,470
2016-10-23T10:50:49.351Z,475
2016-10-23T10:52:00.510Z,470
2016-10-23T10:53:11.684Z,525
2016-10-23T10:54:22.855Z,535
2016-10-23T10:55:34.077Z,580
2016-10-23T10:56:45.265Z,655
2016-10-23T10:57:56.435Z,700
2016-10-23T10:59:07.575Z,740
2016-10-23T11:00:18.760Z,875
2016-10-23T11:01:29.921Z,885
2016-10-23T11:02:41.073Z,915
2016-10-23T11:03:52.239Z,845
2016-10-23T11:05:03.405Z,755
2016-10-23T11:06:14.575Z,645
2016-10-23T11:07:25.733Z,615
2016-10-23T11:08:36.932Z,655
2016-10-23T11:09:48.113Z,785
2016-10-23T11:10:59.284Z,970
2016-10-23T11:12:10.423Z,1075
2016-10-23T11:13:21.601Z,1080
2016-10-23T11:14:32.742Z,1100
2016-10-23T11:15:43.894Z,1035
2016-10-23T11:16:55.059Z,1040
2016-10-23T11:18:06.501Z,1135
2016-10-23T11:19:17.655Z,1215
2016-10-23T11:20:28.841Z,1240
2016-10-23T11:21:39.999Z,1240
2016-10-23T11:22:51.160Z,1200
2016-10-23T11:24:02.323Z,1160
2016-10-23T11:25:13.509Z,1170
2016-10-23T11:26:24.689Z,1205
2016-10-23T11:27:35.851Z,1525
2016-10-23T11:28:47.024Z,1650
2016-10-23T11:29:58.199Z,2365
2016-10-23T11:31:09.357Z,2550
2016-10-23T11:32:20.543Z,1805
2016-10-23T11:33:31.713Z,2380
2016-10-23T11:34:42.889Z,2330
2016-10-23T11:35:54.041Z,2330
2016-10-23T11:37:05.188Z,2315
2016-10-23T11:38:16.361Z,1930
2016-10-23T11:39:27.533Z,1740
2016-10-23T11:40:38.715Z,2335
2016-10-23T11:41:49.892Z,2960
2016-10-23T11:43:01.042Z,3450
2016-10-23T11:44:12.292Z,2025
2016-10-23T11:45:23.432Z,1920
2016-10-23T11:46:34.659Z,2170
2016-10-23T11:47:45.866Z,1820
2016-10-23T11:48:57.022Z,1970
2016-10-23T11:50:08.207Z,3745
2016-10-23T11:51:19.376Z,1745
2016-10-23T11:52:30.538Z,1730
2016-10-23T11:53:41.713Z,2510
2016-10-23T11:54:52.890Z,1975
2016-10-23T11:56:04.083Z,2145
2016-10-23T11:57:15.301Z,3670
2016-10-23T11:58:26.488Z,2340
2016-10-23T11:59:37.652Z,3590
2016-10-23T12:00:48.847Z,3525
2016-10-23T12:02:00.015Z,3445
2016-10-23T12:03:11.200Z,1770
2016-10-23T12:04:22.366Z,3720
2016-10-23T12:05:33.581Z,3655
2016-10-23T12:06:44.755Z,3520
2016-10-23T12:07:55.928Z,3550
2016-10-23T12:09:07.128Z,3035
2016-10-23T12:10:18.290Z,3545
2016-10-23T12:11:29.445Z,3580
2016-10-23T12:12:40.612Z,2480
2016-10-23T12:13:51.791Z,3745
2016-10-23T12:15:02.937Z,2025
2016-10-23T12:16:14.106Z,1990
2016-10-23T12:17:25.267Z,3850
2016-10-23T12:18:36.460Z,3755
2016-10-23T12:19:47.653Z,3370
2016-10-23T12:20:58.797Z,3025
2016-10-23T12:22:09.967Z,2700
2016-10-23T12:23:21.139Z,3905
2016-10-23T12:24:32.295Z,2615
2016-10-23T12:25:43.480Z,2065
2016-10-23T12:26:54.670Z,1555
2016-10-23T12:28:05.854Z,2550
2016-10-23T12:29:17.091Z,2755
2016-10-23T12:30:28.312Z,3940
2016-10-23T12:31:39.531Z,3175
2016-10-23T12:32:50.695Z,3650
2016-10-23T12:34:01.929Z,2785
2016-10-23T12:35:13.095Z,3405
2016-10-23T12:36:24.267Z,3885
2016-10-23T12:37:35.412Z,3935
2016-10-23T12:38:46.573Z,3115
2016-10-23T12:39:57.748Z,3775
2016-10-23T12:41:08.945Z,2705
2016-10-23T12:42:20.113Z,2820
2016-10-23T12:43:31.287Z,3680
2016-10-23T12:44:42.456Z,3550
2016-10-23T12:45:53.628Z,3980
2016-10-23T12:47:24.050Z,3545
2016-10-23T12:48:35.224Z,3795
2016-10-23T12:49:46.389Z,3655
2016-10-23T12:50:57.548Z,3745
2016-10-23T12:52:08.720Z,3755
2016-10-23T12:53:19.918Z,3885
2016-10-23T12:54:31.103Z,3865
2016-10-23T12:55:42.259Z,4105
2016-10-23T12:56:53.427Z,3915
2016-10-23T12:58:04.591Z,3975
2016-10-23T12:59:15.776Z,3970
2016-10-23T13:00:26.949Z,3975
2016-10-23T13:01:38.130Z,3795
2016-10-23T13:02:49.275Z,3745
2016-10-23T13:04:00.747Z,3805
2016-10-23T13:05:11.913Z,3865
2016-10-23T13:06:23.126Z,3825
2016-10-23T13:07:34.323Z,4095
2016-10-23T13:08:45.494Z,4055
2016-10-23T13:09:56.676Z,4220
2016-10-23T13:11:07.840Z,4060
2016-10-23T13:12:19.011Z,4100
2016-10-23T13:13:30.179Z,3985
2016-10-23T13:14:41.358Z,4115
2016-10-23T13:15:52.527Z,3830
2016-10-23T13:17:03.672Z,3920
2016-10-23T13:18:14.857Z,3925
2016-10-23T13:19:26.063Z,4065
2016-10-23T13:20:37.290Z,4060
2016-10-23T13:21:48.459Z,3970
2016-10-23T13:22:59.672Z,4005
2016-10-23T13:24:10.858Z,3920
2016-10-23T13:25:22.041Z,4025
2016-10-23T13:26:33.226Z,4230
2016-10-23T13:27:44.410Z,4200
2016-10-23T13:28:55.571Z,4125
2016-10-23T13:30:06.776Z,4095
2016-10-23T13:31:17.914Z,3835
2016-10-23T13:32:29.078Z,3925
2016-10-23T13:33:40.254Z,4015
2016-10-23T13:34:51.419Z,4300
2016-10-23T13:36:02.623Z,4200
2016-10-23T13:37:13.818Z,4105
2016-10-23T13:38:25.004Z,4235
2016-10-23T13:39:36.186Z,4255
2016-10-23T13:40:47.376Z,3980
2016-10-23T13:41:58.551Z,4055
2016-10-23T13:43:09.725Z,4310
2016-10-23T13:44:20.901Z,4155
2016-10-23T13:45:32.082Z,4155
2016-10-23T13:46:43.268Z,3985
2016-10-23T13:47:54.440Z,4250
2016-10-23T13:49:05.626Z,4205
2016-10-23T13:50:16.785Z,4165
2016-10-23T13:51:27.992Z,4175
2016-10-23T13:52:39.193Z,4085
2016-10-23T13:53:50.376Z,4200
2016-10-23T13:55:01.567Z,4155
2016-10-23T13:56:12.766Z,4285
2016-10-23T13:57:23.975Z,4015
2016-10-23T13:58:35.164Z,4220
2016-10-23T13:59:46.339Z,4400
2016-10-23T14:00:57.506Z,4170
2016-10-23T14:02:08.698Z,4120
2016-10-23T14:03:20.453Z,4125
2016-10-23T14:04:31.623Z,4400
2016-10-23T14:05:42.792Z,4080
2016-10-23T14:06:53.973Z,4340
2016-10-23T14:08:05.162Z,4425
2016-10-23T14:09:16.346Z,4215
2016-10-23T14:10:27.508Z,4280
2016-10-23T14:11:38.703Z,4135
2016-10-23T14:12:49.879Z,4195
2016-10-23T14:14:01.079Z,4230
2016-10-23T14:15:12.245Z,4235
2016-10-23T14:16:23.407Z,4210
2016-10-23T14:17:34.581Z,4225
2016-10-23T14:18:45.745Z,4210
2016-10-23T14:19:56.957Z,4150
2016-10-23T14:21:08.177Z,4345
2016-10-23T14:22:19.333Z,4225
2016-10-23T14:23:30.499Z,4235
2016-10-23T14:24:41.927Z,4470
2016-10-23T14:25:53.119Z,4220
2016-10-23T14:27:04.320Z,4390
2016-10-23T14:28:15.502Z,4245
2016-10-23T14:29:26.677Z,4145
2016-10-23T14:30:37.875Z,4335
2016-10-23T14:31:49.041Z,4350
2016-10-23T14:33:00.190Z,4360
2016-10-23T14:34:11.361Z,4325
2016-10-23T14:35:23.117Z,4500
2016-10-23T14:36:34.276Z,4415
2016-10-23T14:37:45.462Z,4535
2016-10-23T14:38:56.643Z,4410
2016-10-23T14:40:07.840Z,4135
2016-10-23T14:41:19.012Z,4230
2016-10-23T14:42:30.774Z,4360
2016-10-23T14:43:42.004Z,4270
2016-10-23T14:44:53.168Z,4215
2016-10-23T14:46:04.344Z,4070
2016-10-23T14:47:15.507Z,4305
2016-10-23T14:48:26.710Z,4085
2016-10-23T14:49:38.452Z,4365
2016-10-23T14:50:49.604Z,4620
2016-10-23T14:52:00.777Z,4280
2016-10-23T14:53:11.965Z,4320
2016-10-23T14:54:23.153Z,4210
2016-10-23T14:55:34.337Z,4460
2016-10-23T14:56:45.502Z,4235
2016-10-23T14:57:56.695Z,4405
2016-10-23T14:59:07.898Z,4310
2016-10-23T15:00:19.054Z,4340
2016-10-23T15:01:30.269Z,4330
2016-10-23T15:02:41.434Z,4625
2016-10-23T15:03:53.178Z,4645
2016-10-23T15:05:04.385Z,4450
2016-10-23T15:06:15.547Z,4510
2016-10-23T15:07:26.707Z,4490
2016-10-23T15:08:37.892Z,4475
2016-10-23T15:09:49.072Z,4325
2016-10-23T15:11:00.261Z,4155
2016-10-23T15:12:11.461Z,4350
2016-10-23T15:13:22.633Z,4450
2016-10-23T15:14:33.840Z,4510
2016-10-23T15:15:45.028Z,4435
2016-10-23T15:16:56.217Z,4425
2016-10-23T15:18:07.407Z,4450
2016-10-23T15:19:18.589Z,4560
2016-10-23T15:20:30.315Z,4455
2016-10-23T15:21:41.501Z,4525
2016-10-23T15:22:52.727Z,4600
2016-10-23T15:24:03.966Z,4585
2016-10-23T15:25:15.184Z,4475
2016-10-23T15:26:26.361Z,1895
2016-10-23T15:27:37.540Z,1655
2016-10-23T15:28:48.734Z,1450
2016-10-23T15:29:59.961Z,1375
2016-10-23T15:31:11.143Z,3610
2016-10-23T15:32:22.324Z,4335
2016-10-23T15:33:33.520Z,4475
2016-10-23T15:34:44.723Z,4435
2016-10-23T15:35:55.906Z,4385
2016-10-23T15:37:07.127Z,4590
2016-10-23T15:38:18.303Z,4585
2016-10-23T15:39:29.448Z,4610
2016-10-23T15:40:40.645Z,4975
2016-10-23T15:41:51.813Z,4585
2016-10-23T15:43:02.984Z,4575
2016-10-23T15:44:14.171Z,4665
2016-10-23T15:45:25.357Z,4780
2016-10-23T15:46:36.524Z,4650
2016-10-23T15:47:47.714Z,4530
2016-10-23T15:48:58.901Z,4535
2016-10-23T15:50:10.093Z,4710
2016-10-23T15:51:21.296Z,4590
2016-10-23T15:52:32.511Z,4305
2016-10-23T15:53:43.739Z,2230
2016-10-23T15:54:54.989Z,1890
2016-10-23T15:56:06.173Z,1690
2016-10-23T15:57:17.988Z,1640
2016-10-23T15:58:29.154Z,1535
2016-10-23T15:59:40.320Z,1450
2016-10-23T16:00:51.501Z,1495
2016-10-23T16:02:02.684Z,1645
2016-10-23T16:03:13.857Z,1825
2016-10-23T16:04:25.045Z,2140
2016-10-23T16:05:36.233Z,3350
2016-10-23T16:06:47.399Z,3130
2016-10-23T16:07:58.558Z,2350
2016-10-23T16:09:10.297Z,2155
2016-10-23T16:10:21.508Z,2170
2016-10-23T16:11:32.695Z,2275
2016-10-23T16:12:43.894Z,2280
2016-10-23T16:13:55.111Z,3705
2016-10-23T16:15:06.268Z,2295
2016-10-23T16:16:17.425Z,2845
2016-10-23T16:17:28.608Z,3735
2016-10-23T16:18:39.780Z,4115
2016-10-23T16:19:50.974Z,2400
2016-10-23T16:21:02.152Z,2345
2016-10-23T16:22:13.327Z,4070
2016-10-23T16:23:24.553Z,2425
2016-10-23T16:24:35.736Z,3735
2016-10-23T16:25:46.920Z,2560
2016-10-23T16:26:58.646Z,1890
2016-10-23T16:28:09.814Z,1840
2016-10-23T16:29:20.984Z,1735
2016-10-23T16:30:32.743Z,1670
2016-10-23T16:31:43.895Z,2230
2016-10-23T16:32:55.049Z,2015
2016-10-23T16:34:06.227Z,2375
2016-10-23T16:35:17.392Z,1855
2016-10-23T16:36:28.574Z,1830
2016-10-23T16:37:39.768Z,2665
2016-10-23T16:38:50.934Z,1695
2016-10-23T16:40:02.093Z,3495
2016-10-23T16:41:13.280Z,3630
2016-10-23T16:42:24.490Z,3720
2016-10-23T16:43:35.707Z,3690
2016-10-23T16:44:46.869Z,3645
2016-10-23T16:45:58.038Z,3810